sensor_id;sensor_type;location;lat;lon;timestamp;temperature;humidity
14471;DHT22;7321;50.802;4.336;2023-03-23T00:05:42;14.50;99.90
14471;DHT22;7321;50.802;4.336;2023-03-23T00:08:24;14.60;99.90
14471;DHT22;7321;50.802;4.336;2023-03-23T00:10:59;14.50;99.90
14471;DHT22;7321;50.802;4.336;2023-03-23T00:13:28;14.40;99.90
14471;DHT22;7321;50.802;4.336;2023-03-23T00:15:54;14.60;99.90
14471;DHT22;7321;50.802;4.336;2023-03-23T00:18:22;14.50;99.90
14471;DHT22;7321;50.802;4.336;2023-03-23T00:20:50;14.50;99.90
14471;DHT22;7321;50.802;4.336;2023-03-23T00:23:17;14.40;99.90
14471;DHT22;7321;50.802;4.336;2023-03-23T00:25:50;14.50;99.90
14471;DHT22;7321;50.802;4.336;2023-03-23T00:28:19;14.50;99.90
14471;DHT22;7321;50.802;4.336;2023-03-23T00:31:02;14.60;99.90
14471;DHT22;7321;50.802;4.336;2023-03-23T00:33:30;14.50;99.90
14471;DHT22;7321;50.802;4.336;2023-03-23T00:35:59;14.30;99.90
14471;DHT22;7321;50.802;4.336;2023-03-23T00:38:25;14.30;99.90
14471;DHT22;7321;50.802;4.336;2023-03-23T00:40:51;14.30;99.90
14471;DHT22;7321;50.802;4.336;2023-03-23T00:43:19;14.40;99.90
14471;DHT22;7321;50.802;4.336;2023-03-23T00:45:45;14.40;99.90
14471;DHT22;7321;50.802;4.336;2023-03-23T00:48:24;14.40;99.90
14471;DHT22;7321;50.802;4.336;2023-03-23T00:50:51;14.40;99.90
14471;DHT22;7321;50.802;4.336;2023-03-23T00:53:18;14.40;99.90
14471;DHT22;7321;50.802;4.336;2023-03-23T00:55:45;14.40;99.90
14471;DHT22;7321;50.802;4.336;2023-03-23T00:58:12;14.40;99.90
14471;DHT22;7321;50.802;4.336;2023-03-23T01:00:39;14.50;99.90
14471;DHT22;7321;50.802;4.336;2023-03-23T01:03:07;14.50;99.90
14471;DHT22;7321;50.802;4.336;2023-03-23T01:05:36;14.40;99.90
14471;DHT22;7321;50.802;4.336;2023-03-23T01:08:03;14.40;99.90
14471;DHT22;7321;50.802;4.336;2023-03-23T01:10:29;14.30;99.90
14471;DHT22;7321;50.802;4.336;2023-03-23T01:12:59;14.30;99.90
14471;DHT22;7321;50.802;4.336;2023-03-23T01:15:27;14.30;99.90
14471;DHT22;7321;50.802;4.336;2023-03-23T01:17:53;14.40;99.90
14471;DHT22;7321;50.802;4.336;2023-03-23T01:20:19;14.50;99.90
14471;DHT22;7321;50.802;4.336;2023-03-23T01:22:45;14.40;99.90
14471;DHT22;7321;50.802;4.336;2023-03-23T01:25:12;14.30;99.90
14471;DHT22;7321;50.802;4.336;2023-03-23T01:27:39;14.30;99.90
14471;DHT22;7321;50.802;4.336;2023-03-23T01:30:08;14.20;99.90
14471;DHT22;7321;50.802;4.336;2023-03-23T01:32:36;14.20;99.90
14471;DHT22;7321;50.802;4.336;2023-03-23T01:35:01;14.20;99.90
14471;DHT22;7321;50.802;4.336;2023-03-23T01:37:27;14.20;99.90
14471;DHT22;7321;50.802;4.336;2023-03-23T01:39:57;14.10;99.90
14471;DHT22;7321;50.802;4.336;2023-03-23T01:42:25;14.10;99.90
14471;DHT22;7321;50.802;4.336;2023-03-23T01:47:20;14.10;99.90
14471;DHT22;7321;50.802;4.336;2023-03-23T01:49:49;14.10;99.90
14471;DHT22;7321;50.802;4.336;2023-03-23T01:52:27;14.00;99.90
14471;DHT22;7321;50.802;4.336;2023-03-23T01:54:56;14.10;99.90
14471;DHT22;7321;50.802;4.336;2023-03-23T01:57:24;14.10;99.90
14471;DHT22;7321;50.802;4.336;2023-03-23T01:59:54;14.20;99.90
14471;DHT22;7321;50.802;4.336;2023-03-23T02:02:23;14.20;99.90
14471;DHT22;7321;50.802;4.336;2023-03-23T02:04:49;14.20;99.90
14471;DHT22;7321;50.802;4.336;2023-03-23T02:07:18;14.40;99.90
14471;DHT22;7321;50.802;4.336;2023-03-23T02:09:45;14.30;99.90
14471;DHT22;7321;50.802;4.336;2023-03-23T02:12:12;14.20;99.90
14471;DHT22;7321;50.802;4.336;2023-03-23T02:14:38;14.20;99.90
14471;DHT22;7321;50.802;4.336;2023-03-23T02:17:30;14.20;99.90
14471;DHT22;7321;50.802;4.336;2023-03-23T02:34:19;14.20;99.90
14471;DHT22;7321;50.802;4.336;2023-03-23T02:37:03;14.20;99.90
14471;DHT22;7321;50.802;4.336;2023-03-23T02:39:37;14.20;99.90
14471;DHT22;7321;50.802;4.336;2023-03-23T02:42:08;14.10;99.90
14471;DHT22;7321;50.802;4.336;2023-03-23T02:44:38;14.10;99.90
14471;DHT22;7321;50.802;4.336;2023-03-23T02:47:10;14.20;99.90
14471;DHT22;7321;50.802;4.336;2023-03-23T02:49:39;14.20;99.90
14471;DHT22;7321;50.802;4.336;2023-03-23T02:52:11;14.10;99.90
14471;DHT22;7321;50.802;4.336;2023-03-23T02:54:42;14.10;99.90
14471;DHT22;7321;50.802;4.336;2023-03-23T02:57:10;14.10;99.90
14471;DHT22;7321;50.802;4.336;2023-03-23T02:59:36;14.20;99.90
14471;DHT22;7321;50.802;4.336;2023-03-23T03:02:10;14.10;99.90
14471;DHT22;7321;50.802;4.336;2023-03-23T03:04:39;14.00;99.90
14471;DHT22;7321;50.802;4.336;2023-03-23T03:07:17;14.10;99.90
14471;DHT22;7321;50.802;4.336;2023-03-23T03:09:58;14.10;99.90
14471;DHT22;7321;50.802;4.336;2023-03-23T03:15:23;14.10;99.90
14471;DHT22;7321;50.802;4.336;2023-03-23T03:20:26;14.20;99.90
14471;DHT22;7321;50.802;4.336;2023-03-23T03:22:54;14.10;99.90
14471;DHT22;7321;50.802;4.336;2023-03-23T03:25:21;14.10;99.90
14471;DHT22;7321;50.802;4.336;2023-03-23T03:27:49;14.20;99.90
14471;DHT22;7321;50.802;4.336;2023-03-23T03:30:21;14.20;99.90
14471;DHT22;7321;50.802;4.336;2023-03-23T03:32:50;14.10;99.90
14471;DHT22;7321;50.802;4.336;2023-03-23T03:35:23;14.10;99.90
14471;DHT22;7321;50.802;4.336;2023-03-23T03:37:50;14.20;99.90
14471;DHT22;7321;50.802;4.336;2023-03-23T03:40:20;14.20;99.90
14471;DHT22;7321;50.802;4.336;2023-03-23T03:42:46;14.20;99.90
14471;DHT22;7321;50.802;4.336;2023-03-23T03:45:17;14.30;99.90
14471;DHT22;7321;50.802;4.336;2023-03-23T03:47:43;14.30;99.90
14471;DHT22;7321;50.802;4.336;2023-03-23T03:50:09;14.30;99.90
14471;DHT22;7321;50.802;4.336;2023-03-23T03:52:36;14.20;99.90
14471;DHT22;7321;50.802;4.336;2023-03-23T03:55:02;14.20;99.90
14471;DHT22;7321;50.802;4.336;2023-03-23T03:57:28;14.20;99.90
14471;DHT22;7321;50.802;4.336;2023-03-23T03:59:53;14.20;99.90
14471;DHT22;7321;50.802;4.336;2023-03-23T04:02:19;14.10;99.90
14471;DHT22;7321;50.802;4.336;2023-03-23T04:04:49;14.20;99.90
14471;DHT22;7321;50.802;4.336;2023-03-23T04:07:16;14.00;99.90
14471;DHT22;7321;50.802;4.336;2023-03-23T04:09:46;13.90;99.90
14471;DHT22;7321;50.802;4.336;2023-03-23T04:12:16;14.00;99.90
14471;DHT22;7321;50.802;4.336;2023-03-23T04:14:41;13.80;99.90
14471;DHT22;7321;50.802;4.336;2023-03-23T04:17:07;13.90;99.90
14471;DHT22;7321;50.802;4.336;2023-03-23T04:19:36;13.90;99.90
14471;DHT22;7321;50.802;4.336;2023-03-23T04:22:04;14.00;99.90
14471;DHT22;7321;50.802;4.336;2023-03-23T04:24:30;13.90;99.90
14471;DHT22;7321;50.802;4.336;2023-03-23T04:26:59;13.90;99.90
14471;DHT22;7321;50.802;4.336;2023-03-23T04:29:26;13.80;99.90
14471;DHT22;7321;50.802;4.336;2023-03-23T04:31:52;13.80;99.90
14471;DHT22;7321;50.802;4.336;2023-03-23T04:34:18;13.90;99.90
14471;DHT22;7321;50.802;4.336;2023-03-23T04:36:44;13.80;99.90
14471;DHT22;7321;50.802;4.336;2023-03-23T04:39:12;13.90;99.90
14471;DHT22;7321;50.802;4.336;2023-03-23T04:41:39;13.80;99.90
14471;DHT22;7321;50.802;4.336;2023-03-23T04:44:06;13.70;99.90
14471;DHT22;7321;50.802;4.336;2023-03-23T04:46:32;13.80;99.90
14471;DHT22;7321;50.802;4.336;2023-03-23T04:48:59;13.90;99.90
14471;DHT22;7321;50.802;4.336;2023-03-23T04:51:26;13.90;99.90
14471;DHT22;7321;50.802;4.336;2023-03-23T04:53:53;13.90;99.90
14471;DHT22;7321;50.802;4.336;2023-03-23T04:56:18;13.90;99.90
14471;DHT22;7321;50.802;4.336;2023-03-23T04:58:45;13.90;99.90
14471;DHT22;7321;50.802;4.336;2023-03-23T05:01:12;13.80;99.90
14471;DHT22;7321;50.802;4.336;2023-03-23T05:03:43;13.80;99.90
14471;DHT22;7321;50.802;4.336;2023-03-23T05:06:10;13.80;99.90
14471;DHT22;7321;50.802;4.336;2023-03-23T05:08:37;13.70;99.90
14471;DHT22;7321;50.802;4.336;2023-03-23T05:11:06;13.70;99.90
14471;DHT22;7321;50.802;4.336;2023-03-23T05:13:33;13.80;99.90
14471;DHT22;7321;50.802;4.336;2023-03-23T05:16:03;13.80;99.90
14471;DHT22;7321;50.802;4.336;2023-03-23T05:18:30;13.70;99.90
14471;DHT22;7321;50.802;4.336;2023-03-23T05:21:00;13.70;99.90
14471;DHT22;7321;50.802;4.336;2023-03-23T05:23:26;13.70;99.90
14471;DHT22;7321;50.802;4.336;2023-03-23T05:25:53;13.70;99.90
14471;DHT22;7321;50.802;4.336;2023-03-23T05:28:19;13.70;99.90
14471;DHT22;7321;50.802;4.336;2023-03-23T05:30:48;13.80;99.90
14471;DHT22;7321;50.802;4.336;2023-03-23T05:33:14;13.70;99.90
14471;DHT22;7321;50.802;4.336;2023-03-23T05:35:40;13.70;99.90
14471;DHT22;7321;50.802;4.336;2023-03-23T05:38:05;13.70;99.90
14471;DHT22;7321;50.802;4.336;2023-03-23T05:40:32;13.70;99.90
14471;DHT22;7321;50.802;4.336;2023-03-23T05:42:57;13.70;99.90
14471;DHT22;7321;50.802;4.336;2023-03-23T05:45:25;13.70;99.90
14471;DHT22;7321;50.802;4.336;2023-03-23T05:47:51;13.80;99.90
14471;DHT22;7321;50.802;4.336;2023-03-23T05:50:18;13.70;99.90
14471;DHT22;7321;50.802;4.336;2023-03-23T05:52:44;13.60;99.90
14471;DHT22;7321;50.802;4.336;2023-03-23T05:55:10;13.70;99.90
14471;DHT22;7321;50.802;4.336;2023-03-23T05:57:37;13.70;99.90
14471;DHT22;7321;50.802;4.336;2023-03-23T06:00:04;13.90;99.90
14471;DHT22;7321;50.802;4.336;2023-03-23T06:02:40;13.70;99.90
14471;DHT22;7321;50.802;4.336;2023-03-23T06:05:10;13.90;99.90
14471;DHT22;7321;50.802;4.336;2023-03-23T06:07:36;13.80;99.90
14471;DHT22;7321;50.802;4.336;2023-03-23T06:10:07;13.80;99.90
14471;DHT22;7321;50.802;4.336;2023-03-23T06:12:35;13.90;99.90
14471;DHT22;7321;50.802;4.336;2023-03-23T06:15:01;13.70;99.90
14471;DHT22;7321;50.802;4.336;2023-03-23T06:17:29;13.70;99.90
14471;DHT22;7321;50.802;4.336;2023-03-23T06:19:55;13.80;99.90
14471;DHT22;7321;50.802;4.336;2023-03-23T06:22:21;13.80;99.90
14471;DHT22;7321;50.802;4.336;2023-03-23T06:24:47;13.80;99.90
14471;DHT22;7321;50.802;4.336;2023-03-23T06:27:12;13.80;99.90
14471;DHT22;7321;50.802;4.336;2023-03-23T06:29:39;13.90;99.90
14471;DHT22;7321;50.802;4.336;2023-03-23T06:32:05;13.90;99.90
14471;DHT22;7321;50.802;4.336;2023-03-23T06:34:31;13.90;99.90
14471;DHT22;7321;50.802;4.336;2023-03-23T06:36:58;13.90;99.90
14471;DHT22;7321;50.802;4.336;2023-03-23T06:39:24;13.90;99.90
14471;DHT22;7321;50.802;4.336;2023-03-23T06:41:51;13.90;99.90
14471;DHT22;7321;50.802;4.336;2023-03-23T06:44:17;13.90;99.90
14471;DHT22;7321;50.802;4.336;2023-03-23T06:46:43;14.00;99.90
14471;DHT22;7321;50.802;4.336;2023-03-23T06:49:09;13.90;99.90
14471;DHT22;7321;50.802;4.336;2023-03-23T06:51:35;14.00;99.90
14471;DHT22;7321;50.802;4.336;2023-03-23T06:54:02;13.90;99.90
14471;DHT22;7321;50.802;4.336;2023-03-23T06:56:29;13.80;99.90
14471;DHT22;7321;50.802;4.336;2023-03-23T06:58:55;13.90;99.90
14471;DHT22;7321;50.802;4.336;2023-03-23T07:01:21;13.90;99.90
14471;DHT22;7321;50.802;4.336;2023-03-23T07:03:47;13.90;99.90
14471;DHT22;7321;50.802;4.336;2023-03-23T07:06:14;14.00;99.90
14471;DHT22;7321;50.802;4.336;2023-03-23T07:08:40;13.90;99.90
14471;DHT22;7321;50.802;4.336;2023-03-23T07:11:06;13.90;99.90
14471;DHT22;7321;50.802;4.336;2023-03-23T07:13:33;14.00;99.90
14471;DHT22;7321;50.802;4.336;2023-03-23T07:15:59;13.90;99.90
14471;DHT22;7321;50.802;4.336;2023-03-23T07:18:26;13.80;99.90
14471;DHT22;7321;50.802;4.336;2023-03-23T07:20:53;13.90;99.90
14471;DHT22;7321;50.802;4.336;2023-03-23T07:23:19;13.80;99.90
14471;DHT22;7321;50.802;4.336;2023-03-23T07:25:46;13.70;99.90
14471;DHT22;7321;50.802;4.336;2023-03-23T07:28:14;13.30;99.90
14471;DHT22;7321;50.802;4.336;2023-03-23T07:30:40;13.00;99.90
14471;DHT22;7321;50.802;4.336;2023-03-23T07:33:08;12.80;99.90
14471;DHT22;7321;50.802;4.336;2023-03-23T07:35:35;12.80;99.90
14471;DHT22;7321;50.802;4.336;2023-03-23T07:38:01;12.80;99.90
14471;DHT22;7321;50.802;4.336;2023-03-23T07:40:27;13.00;99.90
14471;DHT22;7321;50.802;4.336;2023-03-23T07:42:57;13.10;99.90
14471;DHT22;7321;50.802;4.336;2023-03-23T07:45:23;13.20;99.90
14471;DHT22;7321;50.802;4.336;2023-03-23T07:47:50;13.20;99.90
14471;DHT22;7321;50.802;4.336;2023-03-23T07:50:16;13.30;99.90
14471;DHT22;7321;50.802;4.336;2023-03-23T07:52:43;13.40;99.90
14471;DHT22;7321;50.802;4.336;2023-03-23T07:55:11;13.50;99.90
14471;DHT22;7321;50.802;4.336;2023-03-23T07:57:44;13.50;99.90
14471;DHT22;7321;50.802;4.336;2023-03-23T08:00:10;13.50;99.90
14471;DHT22;7321;50.802;4.336;2023-03-23T08:02:48;13.50;99.90
14471;DHT22;7321;50.802;4.336;2023-03-23T08:05:15;13.30;99.90
14471;DHT22;7321;50.802;4.336;2023-03-23T08:07:42;13.40;99.90
14471;DHT22;7321;50.802;4.336;2023-03-23T08:10:09;13.20;99.90
14471;DHT22;7321;50.802;4.336;2023-03-23T08:12:42;13.30;99.90
14471;DHT22;7321;50.802;4.336;2023-03-23T08:15:11;13.20;99.90
14471;DHT22;7321;50.802;4.336;2023-03-23T08:17:43;13.10;99.90
14471;DHT22;7321;50.802;4.336;2023-03-23T08:20:10;13.10;99.90
14471;DHT22;7321;50.802;4.336;2023-03-23T08:22:42;13.10;99.90
14471;DHT22;7321;50.802;4.336;2023-03-23T08:25:13;13.10;99.90
14471;DHT22;7321;50.802;4.336;2023-03-23T08:27:40;13.10;99.90
14471;DHT22;7321;50.802;4.336;2023-03-23T08:30:11;13.10;99.90
14471;DHT22;7321;50.802;4.336;2023-03-23T08:32:40;13.10;99.90
14471;DHT22;7321;50.802;4.336;2023-03-23T08:35:08;13.10;99.90
14471;DHT22;7321;50.802;4.336;2023-03-23T08:37:35;13.00;99.90
14471;DHT22;7321;50.802;4.336;2023-03-23T08:40:01;12.90;99.90
14471;DHT22;7321;50.802;4.336;2023-03-23T08:42:33;12.90;99.90
14471;DHT22;7321;50.802;4.336;2023-03-23T08:44:59;12.90;99.90
14471;DHT22;7321;50.802;4.336;2023-03-23T08:47:24;13.00;99.90
14471;DHT22;7321;50.802;4.336;2023-03-23T08:49:52;13.00;99.90
14471;DHT22;7321;50.802;4.336;2023-03-23T08:52:19;13.00;99.90
14471;DHT22;7321;50.802;4.336;2023-03-23T08:54:46;12.90;99.90
14471;DHT22;7321;50.802;4.336;2023-03-23T08:57:14;13.00;99.90
14471;DHT22;7321;50.802;4.336;2023-03-23T08:59:41;13.10;99.90
14471;DHT22;7321;50.802;4.336;2023-03-23T09:02:11;13.10;99.90
14471;DHT22;7321;50.802;4.336;2023-03-23T09:04:40;13.10;99.90
14471;DHT22;7321;50.802;4.336;2023-03-23T09:07:10;12.90;99.90
14471;DHT22;7321;50.802;4.336;2023-03-23T09:09:38;13.10;99.90
14471;DHT22;7321;50.802;4.336;2023-03-23T09:12:08;13.10;99.90
14471;DHT22;7321;50.802;4.336;2023-03-23T09:14:35;13.20;99.90
14471;DHT22;7321;50.802;4.336;2023-03-23T09:17:01;13.30;99.90
14471;DHT22;7321;50.802;4.336;2023-03-23T09:19:29;13.30;99.90
14471;DHT22;7321;50.802;4.336;2023-03-23T09:21:55;13.40;99.90
14471;DHT22;7321;50.802;4.336;2023-03-23T09:24:21;13.60;99.90
14471;DHT22;7321;50.802;4.336;2023-03-23T09:26:47;13.50;99.90
14471;DHT22;7321;50.802;4.336;2023-03-23T09:29:13;13.60;99.90
14471;DHT22;7321;50.802;4.336;2023-03-23T09:31:40;13.70;99.90
14471;DHT22;7321;50.802;4.336;2023-03-23T09:34:07;13.80;99.90
14471;DHT22;7321;50.802;4.336;2023-03-23T09:36:36;13.60;99.90
14471;DHT22;7321;50.802;4.336;2023-03-23T09:39:05;13.70;99.90
14471;DHT22;7321;50.802;4.336;2023-03-23T09:41:57;13.60;99.90
14471;DHT22;7321;50.802;4.336;2023-03-23T09:50:18;13.60;99.90
14471;DHT22;7321;50.802;4.336;2023-03-23T09:52:46;13.60;99.90
14471;DHT22;7321;50.802;4.336;2023-03-23T09:55:16;13.80;99.90
14471;DHT22;7321;50.802;4.336;2023-03-23T10:05:44;14.50;99.90
14471;DHT22;7321;50.802;4.336;2023-03-23T10:16:00;14.60;99.90
14471;DHT22;7321;50.802;4.336;2023-03-23T10:21:02;15.00;99.90
14471;DHT22;7321;50.802;4.336;2023-03-23T10:29:23;15.50;99.90
14471;DHT22;7321;50.802;4.336;2023-03-23T10:32:03;15.40;99.90
14471;DHT22;7321;50.802;4.336;2023-03-23T10:34:35;15.40;99.90
14471;DHT22;7321;50.802;4.336;2023-03-23T10:39:56;15.30;99.90
14471;DHT22;7321;50.802;4.336;2023-03-23T10:42:30;15.30;99.90
14471;DHT22;7321;50.802;4.336;2023-03-23T10:45:11;15.40;99.90
14471;DHT22;7321;50.802;4.336;2023-03-23T10:47:41;15.70;99.90
14471;DHT22;7321;50.802;4.336;2023-03-23T10:50:18;15.80;99.90
14471;DHT22;7321;50.802;4.336;2023-03-23T10:52:50;15.80;99.90
14471;DHT22;7321;50.802;4.336;2023-03-23T10:55:21;15.90;99.90
14471;DHT22;7321;50.802;4.336;2023-03-23T10:58:04;16.00;99.90
14471;DHT22;7321;50.802;4.336;2023-03-23T11:00:31;16.10;99.90
14471;DHT22;7321;50.802;4.336;2023-03-23T11:03:01;16.30;99.90
14471;DHT22;7321;50.802;4.336;2023-03-23T11:05:38;16.50;99.90
14471;DHT22;7321;50.802;4.336;2023-03-23T11:08:15;16.50;99.90
14471;DHT22;7321;50.802;4.336;2023-03-23T11:13:32;16.60;99.90
14471;DHT22;7321;50.802;4.336;2023-03-23T11:15:59;16.60;99.90
14471;DHT22;7321;50.802;4.336;2023-03-23T11:18:34;16.60;99.90
14471;DHT22;7321;50.802;4.336;2023-03-23T11:21:02;16.60;99.90
14471;DHT22;7321;50.802;4.336;2023-03-23T11:23:37;16.90;99.90
14471;DHT22;7321;50.802;4.336;2023-03-23T11:26:27;17.10;99.90
14471;DHT22;7321;50.802;4.336;2023-03-23T11:29:21;17.10;99.90
14471;DHT22;7321;50.802;4.336;2023-03-23T11:32:04;16.90;99.90
14471;DHT22;7321;50.802;4.336;2023-03-23T11:34:45;16.80;99.90
14471;DHT22;7321;50.802;4.336;2023-03-23T11:37:41;16.90;99.90
14471;DHT22;7321;50.802;4.336;2023-03-23T11:42:43;17.40;99.90
14471;DHT22;7321;50.802;4.336;2023-03-23T11:45:24;17.40;99.90
14471;DHT22;7321;50.802;4.336;2023-03-23T11:50:29;17.10;99.90
14471;DHT22;7321;50.802;4.336;2023-03-23T11:58:16;17.60;99.90
14471;DHT22;7321;50.802;4.336;2023-03-23T12:09:34;17.50;99.90
14471;DHT22;7321;50.802;4.336;2023-03-23T12:14:48;17.50;99.90
14471;DHT22;7321;50.802;4.336;2023-03-23T12:17:35;17.50;99.90
14471;DHT22;7321;50.802;4.336;2023-03-23T12:20:20;17.50;99.90
14471;DHT22;7321;50.802;4.336;2023-03-23T12:23:01;17.50;99.90
14471;DHT22;7321;50.802;4.336;2023-03-23T12:30:47;17.70;99.90
14471;DHT22;7321;50.802;4.336;2023-03-23T12:41:29;17.80;99.90
14471;DHT22;7321;50.802;4.336;2023-03-23T12:44:06;17.70;99.90
14471;DHT22;7321;50.802;4.336;2023-03-23T12:49:15;17.60;99.90
14471;DHT22;7321;50.802;4.336;2023-03-23T12:51:58;17.40;99.90
14471;DHT22;7321;50.802;4.336;2023-03-23T12:57:12;17.60;99.90
14471;DHT22;7321;50.802;4.336;2023-03-23T13:02:28;18.00;99.90
14471;DHT22;7321;50.802;4.336;2023-03-23T13:07:41;18.00;99.90
14471;DHT22;7321;50.802;4.336;2023-03-23T13:10:22;18.00;99.90
14471;DHT22;7321;50.802;4.336;2023-03-23T13:12:50;18.00;99.90
14471;DHT22;7321;50.802;4.336;2023-03-23T13:21:23;18.50;99.90
14471;DHT22;7321;50.802;4.336;2023-03-23T13:24:06;18.40;99.90
14471;DHT22;7321;50.802;4.336;2023-03-23T13:26:38;18.40;99.90
14471;DHT22;7321;50.802;4.336;2023-03-23T13:29:13;18.60;99.90
14471;DHT22;7321;50.802;4.336;2023-03-23T13:31:41;18.60;99.90
14471;DHT22;7321;50.802;4.336;2023-03-23T13:34:22;18.60;99.90
14471;DHT22;7321;50.802;4.336;2023-03-23T13:37:03;18.60;99.90
14471;DHT22;7321;50.802;4.336;2023-03-23T13:39:36;18.50;99.90
14471;DHT22;7321;50.802;4.336;2023-03-23T13:47:37;18.00;99.90
14471;DHT22;7321;50.802;4.336;2023-03-23T14:05:48;17.00;99.90
14471;DHT22;7321;50.802;4.336;2023-03-23T14:08:43;16.90;99.90
14471;DHT22;7321;50.802;4.336;2023-03-23T14:11:20;16.80;99.90
14471;DHT22;7321;50.802;4.336;2023-03-23T14:14:03;16.80;99.90
14471;DHT22;7321;50.802;4.336;2023-03-23T14:16:39;16.90;99.90
14471;DHT22;7321;50.802;4.336;2023-03-23T14:19:28;17.10;99.90
14471;DHT22;7321;50.802;4.336;2023-03-23T14:22:01;17.30;99.90
14471;DHT22;7321;50.802;4.336;2023-03-23T14:24:30;17.30;99.90
14471;DHT22;7321;50.802;4.336;2023-03-23T14:29:36;17.20;99.90
14471;DHT22;7321;50.802;4.336;2023-03-23T14:32:04;17.40;99.90
14471;DHT22;7321;50.802;4.336;2023-03-23T14:34:32;17.40;99.90
14471;DHT22;7321;50.802;4.336;2023-03-23T14:37:01;17.40;99.90
14471;DHT22;7321;50.802;4.336;2023-03-23T14:39:32;17.20;99.90
14471;DHT22;7321;50.802;4.336;2023-03-23T14:42:05;17.00;99.90
14471;DHT22;7321;50.802;4.336;2023-03-23T14:44:35;16.90;99.90
14471;DHT22;7321;50.802;4.336;2023-03-23T14:47:05;17.00;99.90
14471;DHT22;7321;50.802;4.336;2023-03-23T14:49:40;17.00;99.90
14471;DHT22;7321;50.802;4.336;2023-03-23T14:52:12;17.00;99.90
14471;DHT22;7321;50.802;4.336;2023-03-23T14:54:38;17.00;99.90
14471;DHT22;7321;50.802;4.336;2023-03-23T14:57:32;17.00;99.90
14471;DHT22;7321;50.802;4.336;2023-03-23T14:59:58;17.30;99.90
14471;DHT22;7321;50.802;4.336;2023-03-23T15:02:36;17.40;99.90
14471;DHT22;7321;50.802;4.336;2023-03-23T15:05:17;17.50;99.90
14471;DHT22;7321;50.802;4.336;2023-03-23T15:07:48;17.50;99.90
14471;DHT22;7321;50.802;4.336;2023-03-23T15:10:18;17.50;99.90
14471;DHT22;7321;50.802;4.336;2023-03-23T15:12:47;17.40;99.90
14471;DHT22;7321;50.802;4.336;2023-03-23T15:15:21;17.50;99.90
14471;DHT22;7321;50.802;4.336;2023-03-23T15:17:48;17.60;99.90
14471;DHT22;7321;50.802;4.336;2023-03-23T15:20:26;17.60;99.90
14471;DHT22;7321;50.802;4.336;2023-03-23T15:22:53;17.70;99.90
14471;DHT22;7321;50.802;4.336;2023-03-23T15:25:29;17.70;99.90
14471;DHT22;7321;50.802;4.336;2023-03-23T15:28:20;17.70;99.90
14471;DHT22;7321;50.802;4.336;2023-03-23T15:30:52;17.70;99.90
14471;DHT22;7321;50.802;4.336;2023-03-23T15:33:20;17.70;99.90
14471;DHT22;7321;50.802;4.336;2023-03-23T15:35:53;17.70;99.90
14471;DHT22;7321;50.802;4.336;2023-03-23T15:38:24;17.80;99.90
14471;DHT22;7321;50.802;4.336;2023-03-23T15:40:53;17.60;99.90
14471;DHT22;7321;50.802;4.336;2023-03-23T15:43:21;17.50;99.90
14471;DHT22;7321;50.802;4.336;2023-03-23T15:46:04;17.40;99.90
14471;DHT22;7321;50.802;4.336;2023-03-23T15:51:27;17.30;99.90
14471;DHT22;7321;50.802;4.336;2023-03-23T15:53:55;17.30;99.90
14471;DHT22;7321;50.802;4.336;2023-03-23T15:56:22;17.40;99.90
14471;DHT22;7321;50.802;4.336;2023-03-23T15:58:48;17.40;99.90
14471;DHT22;7321;50.802;4.336;2023-03-23T16:01:18;17.40;99.90
14471;DHT22;7321;50.802;4.336;2023-03-23T16:03:58;17.40;99.90
14471;DHT22;7321;50.802;4.336;2023-03-23T16:06:26;17.40;99.90
14471;DHT22;7321;50.802;4.336;2023-03-23T16:08:56;17.30;99.90
14471;DHT22;7321;50.802;4.336;2023-03-23T16:11:25;17.20;99.90
14471;DHT22;7321;50.802;4.336;2023-03-23T16:13:51;17.20;99.90
14471;DHT22;7321;50.802;4.336;2023-03-23T16:16:20;17.10;99.90
14471;DHT22;7321;50.802;4.336;2023-03-23T16:18:47;17.20;99.90
14471;DHT22;7321;50.802;4.336;2023-03-23T16:21:13;17.30;99.90
14471;DHT22;7321;50.802;4.336;2023-03-23T16:23:38;17.30;99.90
14471;DHT22;7321;50.802;4.336;2023-03-23T16:26:07;17.50;99.90
14471;DHT22;7321;50.802;4.336;2023-03-23T16:28:33;17.60;99.90
14471;DHT22;7321;50.802;4.336;2023-03-23T16:30:59;17.70;99.90
14471;DHT22;7321;50.802;4.336;2023-03-23T16:33:25;17.80;99.90
14471;DHT22;7321;50.802;4.336;2023-03-23T16:35:51;17.80;99.90
14471;DHT22;7321;50.802;4.336;2023-03-23T16:38:17;17.70;99.90
14471;DHT22;7321;50.802;4.336;2023-03-23T16:40:44;17.50;99.90
14471;DHT22;7321;50.802;4.336;2023-03-23T16:43:10;17.50;99.90
14471;DHT22;7321;50.802;4.336;2023-03-23T16:45:38;17.50;99.90
14471;DHT22;7321;50.802;4.336;2023-03-23T16:48:05;17.30;99.90
14471;DHT22;7321;50.802;4.336;2023-03-23T16:50:32;17.50;99.90
14471;DHT22;7321;50.802;4.336;2023-03-23T16:52:58;17.30;99.90
14471;DHT22;7321;50.802;4.336;2023-03-23T16:55:24;17.20;99.90
14471;DHT22;7321;50.802;4.336;2023-03-23T16:57:52;17.10;99.90
14471;DHT22;7321;50.802;4.336;2023-03-23T17:00:18;17.00;99.90
14471;DHT22;7321;50.802;4.336;2023-03-23T17:02:46;16.90;99.90
14471;DHT22;7321;50.802;4.336;2023-03-23T17:05:13;17.00;99.90
14471;DHT22;7321;50.802;4.336;2023-03-23T17:07:41;16.80;99.90
14471;DHT22;7321;50.802;4.336;2023-03-23T17:10:09;16.60;99.90
14471;DHT22;7321;50.802;4.336;2023-03-23T17:12:35;16.80;99.90
14471;DHT22;7321;50.802;4.336;2023-03-23T17:15:02;16.60;99.90
14471;DHT22;7321;50.802;4.336;2023-03-23T17:17:28;16.60;99.90
14471;DHT22;7321;50.802;4.336;2023-03-23T17:19:54;16.50;99.90
14471;DHT22;7321;50.802;4.336;2023-03-23T17:22:21;16.40;99.90
14471;DHT22;7321;50.802;4.336;2023-03-23T17:24:47;16.40;99.90
14471;DHT22;7321;50.802;4.336;2023-03-23T17:27:15;16.30;99.90
14471;DHT22;7321;50.802;4.336;2023-03-23T17:29:42;16.50;99.90
14471;DHT22;7321;50.802;4.336;2023-03-23T17:32:09;16.60;99.90
14471;DHT22;7321;50.802;4.336;2023-03-23T17:34:35;16.50;99.90
14471;DHT22;7321;50.802;4.336;2023-03-23T17:37:01;16.40;99.90
14471;DHT22;7321;50.802;4.336;2023-03-23T17:39:28;16.40;99.90
14471;DHT22;7321;50.802;4.336;2023-03-23T17:41:54;16.40;99.90
14471;DHT22;7321;50.802;4.336;2023-03-23T17:44:20;16.30;99.90
14471;DHT22;7321;50.802;4.336;2023-03-23T17:46:46;16.40;99.90
14471;DHT22;7321;50.802;4.336;2023-03-23T17:49:15;16.40;99.90
14471;DHT22;7321;50.802;4.336;2023-03-23T17:51:41;16.30;99.90
14471;DHT22;7321;50.802;4.336;2023-03-23T17:54:07;16.20;99.90
14471;DHT22;7321;50.802;4.336;2023-03-23T17:56:33;16.20;99.90
14471;DHT22;7321;50.802;4.336;2023-03-23T17:58:58;16.10;99.90
14471;DHT22;7321;50.802;4.336;2023-03-23T18:01:24;16.20;99.90
14471;DHT22;7321;50.802;4.336;2023-03-23T18:03:51;16.20;99.90
14471;DHT22;7321;50.802;4.336;2023-03-23T18:06:17;16.20;99.90
14471;DHT22;7321;50.802;4.336;2023-03-23T18:08:43;16.20;99.90
14471;DHT22;7321;50.802;4.336;2023-03-23T18:11:09;16.20;99.90
14471;DHT22;7321;50.802;4.336;2023-03-23T18:13:36;16.20;99.90
14471;DHT22;7321;50.802;4.336;2023-03-23T18:16:03;16.10;99.90
14471;DHT22;7321;50.802;4.336;2023-03-23T18:18:30;16.10;99.90
14471;DHT22;7321;50.802;4.336;2023-03-23T18:21:02;16.10;99.90